createdAt,value
2023-04-26T00:00:35.455Z,101579.75
2023-04-26T00:03:03.806Z,101587.34
2023-04-26T00:05:32.079Z,101585.38
2023-04-26T00:07:59.551Z,101585.19
2023-04-26T00:10:26.246Z,101581.69
2023-04-26T00:12:52.987Z,101588.56
2023-04-26T00:15:19.692Z,101586.81
2023-04-26T00:17:46.574Z,101586.44
2023-04-26T00:20:13.676Z,101580.84
2023-04-26T00:22:41.025Z,101583.59
2023-04-26T00:25:08.202Z,101585.56
2023-04-26T00:27:35.605Z,101589.22
2023-04-26T00:30:02.330Z,101580.22
2023-04-26T00:32:31.430Z,101578.28
2023-04-26T00:34:58.247Z,101591.25
2023-04-26T00:37:25.083Z,101591.84
2023-04-26T00:39:51.802Z,101589.69
2023-04-26T00:42:19.533Z,101593.44
2023-04-26T00:44:46.401Z,101598.31
2023-04-26T00:47:13.549Z,101585.31
2023-04-26T00:49:40.791Z,101591.91
2023-04-26T00:52:08.033Z,101592.69
2023-04-26T00:54:34.928Z,101588.78
2023-04-26T00:57:02.596Z,101594.22
2023-04-26T00:59:29.403Z,101592.69
2023-04-26T01:01:56.585Z,101584.28
2023-04-26T01:04:27.593Z,101581.94
2023-04-26T01:06:56.215Z,101583.41
2023-04-26T01:09:22.958Z,101581.94
2023-04-26T01:11:50.569Z,101580.47
2023-04-26T01:14:17.765Z,101582.72
2023-04-26T01:16:46.873Z,101581.97
2023-04-26T01:19:15.305Z,101581.84
2023-04-26T01:21:42.681Z,101581.56
2023-04-26T01:24:13.780Z,101579.56
2023-04-26T01:26:45.694Z,101589.66
2023-04-26T01:29:18.857Z,101588.19
2023-04-26T01:31:46.494Z,101592.19
2023-04-26T01:34:13.441Z,101589.75
2023-04-26T01:36:40.716Z,101592.72
2023-04-26T01:39:09.138Z,101601.91
2023-04-26T01:41:36.075Z,101588.06
2023-04-26T01:44:02.767Z,101590.81
2023-04-26T01:46:31.145Z,101594.09
2023-04-26T01:48:57.931Z,101591.69
2023-04-26T01:51:24.924Z,101584.44
2023-04-26T01:53:51.674Z,101582.94
2023-04-26T01:56:19.453Z,101590.13
2023-04-26T01:58:46.281Z,101580.47
2023-04-26T02:01:13.101Z,101580.84
2023-04-26T02:03:40.070Z,101574.16
2023-04-26T02:06:07.467Z,101578.22
2023-04-26T02:08:34.544Z,101570.34
2023-04-26T02:11:01.417Z,101566.66
2023-04-26T02:13:28.202Z,101572.72
2023-04-26T02:15:54.976Z,101561.63
2023-04-26T02:18:22.088Z,101567.41
2023-04-26T02:20:50.373Z,101566.75
2023-04-26T02:23:17.267Z,101565.44
2023-04-26T02:25:46.883Z,101556.31
2023-04-26T02:28:13.881Z,101560.44
2023-04-26T02:30:41.229Z,101552.84
2023-04-26T02:33:09.024Z,101562.97
2023-04-26T02:35:37.531Z,101560.13
2023-04-26T02:38:04.811Z,101555.31
2023-04-26T02:40:32.580Z,101560.13
2023-04-26T02:42:59.593Z,101552.97
2023-04-26T02:45:26.438Z,101552.31
2023-04-26T02:47:53.374Z,101557.22
2023-04-26T02:50:20.343Z,101545.91
2023-04-26T02:52:48.384Z,101549.69
2023-04-26T02:55:15.296Z,101560.44
2023-04-26T02:57:42.812Z,101551.31
2023-04-26T03:00:10.376Z,101553.72
2023-04-26T03:02:37.464Z,101549.13
2023-04-26T03:05:04.726Z,101554.81
2023-04-26T03:07:31.893Z,101552.91
2023-04-26T03:09:59.000Z,101558.81
2023-04-26T03:12:26.929Z,101559.91
2023-04-26T03:14:53.745Z,101549.41
2023-04-26T03:17:21.150Z,101542.41
2023-04-26T03:19:47.973Z,101542.94
2023-04-26T03:22:16.352Z,101554.25
2023-04-26T03:24:44.340Z,101544.28
2023-04-26T03:27:11.793Z,101539.72
2023-04-26T03:29:39.067Z,101550.75
2023-04-26T03:32:07.423Z,101541.31
2023-04-26T03:34:34.361Z,101539.97
2023-04-26T03:37:02.222Z,101544.31
2023-04-26T03:39:29.736Z,101549.91
2023-04-26T03:41:56.453Z,101538.38
2023-04-26T03:44:23.293Z,101542.94
2023-04-26T03:46:50.058Z,101541.06
2023-04-26T03:49:16.839Z,101542.63
2023-04-26T03:51:45.149Z,101541.53
2023-04-26T03:54:11.882Z,101547.75
2023-04-26T03:56:40.227Z,101545.34
2023-04-26T03:59:07.464Z,101539.72
2023-04-26T04:01:34.241Z,101538.66
2023-04-26T04:04:01.077Z,101545.63
2023-04-26T04:06:28.965Z,101534.63
2023-04-26T04:08:55.903Z,101544.59
2023-04-26T04:11:23.680Z,101551.53
2023-04-26T04:13:50.912Z,101553.69
2023-04-26T04:16:18.072Z,101546.97
2023-04-26T04:18:44.808Z,101542.41
2023-04-26T04:21:12.027Z,101548.59
2023-04-26T04:23:39.253Z,101550.19
2023-04-26T04:26:08.959Z,101543.75
2023-04-26T04:28:35.716Z,101550.78
2023-04-26T04:31:03.198Z,101554.22
2023-04-26T04:33:29.995Z,101557.22
2023-04-26T04:35:58.665Z,101549.88
2023-04-26T04:38:25.725Z,101554.97
2023-04-26T04:40:53.514Z,101549.31
2023-04-26T04:43:21.478Z,101553.72
2023-04-26T04:45:49.492Z,101548.31
2023-04-26T04:48:16.600Z,101549.69
2023-04-26T04:50:44.743Z,101541.84
2023-04-26T04:53:12.814Z,101554.25
2023-04-26T04:55:39.655Z,101559.06
2023-04-26T04:58:08.383Z,101562.88
2023-04-26T05:00:35.477Z,101558.31
2023-04-26T05:03:10.884Z,101557.75
2023-04-26T05:05:37.749Z,101564.75
2023-04-26T05:08:04.915Z,101562.88
2023-04-26T05:10:32.730Z,101561.50
2023-04-26T05:12:59.610Z,101563.94
2023-04-26T05:15:27.238Z,101561.22
2023-04-26T05:17:55.855Z,101563.38
2023-04-26T05:20:24.114Z,101563.38
2023-04-26T05:22:51.075Z,101573.84
2023-04-26T05:25:18.211Z,101574.06
2023-04-26T05:27:48.952Z,101574.69
2023-04-26T05:30:36.101Z,101567.84
2023-04-26T05:33:21.956Z,101579.88
2023-04-26T05:35:55.011Z,101580.41
2023-04-26T05:38:24.685Z,101576.31
2023-04-26T05:40:51.824Z,101571.88
2023-04-26T05:43:18.812Z,101560.13
2023-04-26T05:45:58.095Z,101580.88
2023-04-26T05:48:26.603Z,101577.38
2023-04-26T05:50:53.540Z,101577.78
2023-04-26T05:53:20.721Z,101585.41
2023-04-26T05:55:47.916Z,101585.59
2023-04-26T05:58:15.769Z,101592.09
2023-04-26T06:00:42.827Z,101587.03
2023-04-26T06:03:10.022Z,101592.59
2023-04-26T06:05:41.536Z,101587.88
2023-04-26T06:08:09.184Z,101597.19
2023-04-26T06:10:37.678Z,101600.28
2023-04-26T06:13:04.750Z,101605.47
2023-04-26T06:15:34.322Z,101600.09
2023-04-26T06:18:01.290Z,101603.63
2023-04-26T06:20:28.368Z,101603.81
2023-04-26T06:22:55.167Z,101613.56
2023-04-26T06:25:22.746Z,101609.84
2023-04-26T06:27:49.607Z,101612.63
2023-04-26T06:30:16.904Z,101621.38
2023-04-26T06:32:47.168Z,101617.41
2023-04-26T06:35:14.428Z,101618.84
2023-04-26T06:37:41.723Z,101619.72
2023-04-26T06:40:09.283Z,101621.38
2023-04-26T06:42:36.765Z,101620.69
2023-04-26T06:45:27.155Z,101624.06
2023-04-26T06:47:54.977Z,101631.34
2023-04-26T06:50:24.277Z,101628.00
2023-04-26T06:52:51.569Z,101615.72
2023-04-26T06:55:19.022Z,101611.50
2023-04-26T06:57:45.998Z,101616.66
2023-04-26T07:00:13.906Z,101616.41
2023-04-26T07:02:41.552Z,101621.75
2023-04-26T07:05:08.943Z,101615.09
2023-04-26T07:07:36.039Z,101609.88
2023-04-26T07:10:03.664Z,101614.22
2023-04-26T07:12:31.287Z,101608.16
2023-04-26T07:14:58.295Z,101608.63
2023-04-26T07:17:25.086Z,101608.84
2023-04-26T07:19:52.464Z,101612.44
2023-04-26T07:22:19.740Z,101607.94
2023-04-26T07:24:46.706Z,101600.28
2023-04-26T07:27:13.451Z,101608.69
2023-04-26T07:29:40.469Z,101604.22
2023-04-26T07:32:07.285Z,101600.03
2023-04-26T07:34:34.372Z,101595.25
2023-04-26T07:37:01.828Z,101607.63
2023-04-26T07:39:28.781Z,101601.66
2023-04-26T07:41:55.644Z,101610.84
2023-04-26T07:44:22.522Z,101608.81
2023-04-26T07:46:49.421Z,101607.22
2023-04-26T07:49:16.455Z,101617.06
2023-04-26T07:51:44.389Z,101617.06
2023-04-26T07:54:14.339Z,101606.72
2023-04-26T07:56:41.477Z,101603.19
2023-04-26T07:59:08.566Z,101610.00
2023-04-26T08:01:35.338Z,101608.34
2023-04-26T08:04:02.590Z,101603.63
2023-04-26T08:06:30.204Z,101603.47
2023-04-26T08:08:57.209Z,101605.13
2023-04-26T08:11:24.340Z,101600.47
2023-04-26T08:13:51.449Z,101610.09
2023-04-26T08:16:18.402Z,101609.81
2023-04-26T08:18:46.763Z,101605.38
2023-04-26T08:21:14.058Z,101605.16
2023-04-26T08:23:40.972Z,101603.75
2023-04-26T08:26:07.903Z,101599.34
2023-04-26T08:28:35.850Z,101603.06
2023-04-26T08:31:03.006Z,101601.00
2023-04-26T08:33:29.945Z,101600.91
2023-04-26T08:35:56.922Z,101593.84
2023-04-26T08:38:24.783Z,101590.34
2023-04-26T08:40:51.829Z,101593.84
2023-04-26T08:43:18.868Z,101591.84
2023-04-26T08:45:47.531Z,101589.75
2023-04-26T08:48:16.211Z,101589.00
2023-04-26T08:50:49.212Z,101591.56
2023-04-26T08:53:18.116Z,101584.84
2023-04-26T08:55:49.645Z,101590.53
2023-04-26T08:58:18.259Z,101582.16
2023-04-26T09:00:46.348Z,101588.88
2023-04-26T09:03:13.726Z,101578.91
2023-04-26T09:05:44.445Z,101582.34
2023-04-26T09:08:22.373Z,101571.47
2023-04-26T09:10:49.649Z,101567.28
2023-04-26T09:13:16.904Z,101572.50
2023-04-26T09:15:43.904Z,101572.19
2023-04-26T09:18:21.439Z,101568.25
2023-04-26T09:21:08.413Z,101570.81
2023-04-26T09:23:35.728Z,101566.44
2023-04-26T09:26:22.447Z,101574.97
2023-04-26T09:28:50.845Z,101564.16
2023-04-26T09:31:39.397Z,101574.38
2023-04-26T09:34:06.522Z,101572.69
2023-04-26T09:36:33.373Z,101564.84
2023-04-26T09:39:00.592Z,101569.47
2023-04-26T09:41:46.157Z,101575.53
2023-04-26T09:44:23.336Z,101573.91
2023-04-26T09:47:02.375Z,101573.16
2023-04-26T09:49:44.649Z,101570.25
2023-04-26T09:52:11.723Z,101575.88
2023-04-26T09:54:52.418Z,101571.63
2023-04-26T09:57:22.361Z,101574.38
2023-04-26T09:59:55.372Z,101577.59
2023-04-26T10:02:27.646Z,101575.06
2023-04-26T10:04:56.615Z,101573.91
2023-04-26T10:07:24.692Z,101567.69
2023-04-26T10:09:51.694Z,101566.25
2023-04-26T10:12:20.152Z,101562.56
2023-04-26T10:14:48.213Z,101564.09
2023-04-26T10:17:15.070Z,101566.25
2023-04-26T10:19:46.750Z,101567.72
2023-04-26T10:22:27.543Z,101566.75
2023-04-26T10:24:56.038Z,101561.53
2023-04-26T10:27:45.073Z,101560.88
2023-04-26T10:30:14.286Z,101553.56
2023-04-26T10:33:01.529Z,101546.53
2023-04-26T10:35:29.207Z,101538.50
2023-04-26T10:38:01.995Z,101540.59
2023-04-26T10:40:31.042Z,101535.63
2023-04-26T10:43:16.218Z,101543.91
2023-04-26T10:45:44.056Z,101537.34
2023-04-26T10:48:20.028Z,101531.41
2023-04-26T10:51:02.598Z,101522.06
2023-04-26T10:53:29.950Z,101519.00
2023-04-26T10:55:56.702Z,101516.25
2023-04-26T10:58:36.357Z,101512.72
2023-04-26T11:01:17.025Z,101510.59
2023-04-26T11:04:02.468Z,101508.16
2023-04-26T11:06:52.832Z,101506.50
2023-04-26T11:09:41.851Z,101505.09
2023-04-26T11:12:13.808Z,101508.81
2023-04-26T11:14:45.634Z,101505.50
2023-04-26T11:17:14.874Z,101503.75
2023-04-26T11:19:42.035Z,101501.63
2023-04-26T11:22:09.220Z,101501.97
2023-04-26T11:24:39.657Z,101501.50
2023-04-26T11:27:12.606Z,101491.84
2023-04-26T11:29:39.781Z,101485.41
2023-04-26T11:32:07.228Z,101486.94
2023-04-26T11:34:39.434Z,101492.44
2023-04-26T11:37:09.966Z,101485.75
2023-04-26T11:39:37.582Z,101486.31
2023-04-26T11:42:07.744Z,101489.75
2023-04-26T11:44:35.574Z,101481.16
2023-04-26T11:47:06.183Z,101484.69
2023-04-26T11:49:33.909Z,101475.69
2023-04-26T11:52:01.707Z,101475.59
2023-04-26T11:54:33.212Z,101482.09
2023-04-26T11:57:01.289Z,101476.44
2023-04-26T11:59:31.933Z,101484.97
2023-04-26T12:02:07.284Z,101462.38
2023-04-26T12:04:34.402Z,101478.47
2023-04-26T12:07:02.055Z,101472.97
2023-04-26T12:09:31.016Z,101477.44
2023-04-26T12:12:02.277Z,101480.88
2023-04-26T12:14:36.911Z,101477.53
2023-04-26T12:17:09.309Z,101477.72
2023-04-26T12:19:41.131Z,101485.66
2023-04-26T12:22:08.806Z,101489.31
2023-04-26T12:24:38.892Z,101481.06
2023-04-26T12:27:09.513Z,101480.16
2023-04-26T12:29:36.228Z,101482.41
2023-04-26T12:32:03.884Z,101483.00
2023-04-26T12:34:31.078Z,101483.72
2023-04-26T12:36:58.086Z,101479.97
2023-04-26T12:39:25.317Z,101478.44
2023-04-26T12:41:52.346Z,101468.41
2023-04-26T12:44:21.888Z,101469.81
2023-04-26T12:46:49.487Z,101478.03
2023-04-26T12:49:16.423Z,101476.19
2023-04-26T12:51:43.424Z,101483.13
2023-04-26T12:54:10.208Z,101470.81
2023-04-26T12:56:40.940Z,101478.50
2023-04-26T12:59:07.786Z,101478.75
2023-04-26T13:01:36.585Z,101478.44
2023-04-26T13:04:05.953Z,101474.50
2023-04-26T13:06:33.369Z,101473.91
2023-04-26T13:09:00.134Z,101473.47
2023-04-26T13:11:27.104Z,101475.41
2023-04-26T13:13:54.960Z,101478.25
2023-04-26T13:16:21.836Z,101468.56
2023-04-26T13:18:48.650Z,101464.63
2023-04-26T13:21:15.498Z,101470.78
2023-04-26T13:23:42.369Z,101467.75
2023-04-26T13:26:09.109Z,101463.84
2023-04-26T13:28:36.331Z,101469.31
2023-04-26T13:31:03.348Z,101470.16
2023-04-26T13:33:30.396Z,101470.31
2023-04-26T13:35:57.214Z,101459.34
2023-04-26T13:38:24.482Z,101465.34
2023-04-26T13:40:52.466Z,101459.66
2023-04-26T13:43:19.324Z,101468.00
2023-04-26T13:45:46.146Z,101459.94
2023-04-26T13:48:13.168Z,101464.66
2023-04-26T13:50:40.282Z,101463.75
2023-04-26T13:53:08.407Z,101464.41
2023-04-26T13:55:35.246Z,101454.50
2023-04-26T13:58:02.081Z,101455.97
2023-04-26T14:00:29.019Z,101451.88
2023-04-26T14:02:56.170Z,101459.78
2023-04-26T14:05:23.909Z,101450.47
2023-04-26T14:10:17.666Z,101448.81
2023-04-26T14:12:44.594Z,101434.19
2023-04-26T14:15:12.432Z,101438.75
2023-04-26T14:17:39.377Z,101440.94
2023-04-26T14:20:08.342Z,101437.81
2023-04-26T14:22:35.839Z,101437.50
2023-04-26T14:25:02.633Z,101444.47
2023-04-26T14:27:29.526Z,101441.97
2023-04-26T14:29:56.357Z,101440.34
2023-04-26T14:32:23.566Z,101440.97
2023-04-26T14:34:50.342Z,101429.19
2023-04-26T14:37:17.464Z,101435.44
2023-04-26T14:39:44.578Z,101435.28
2023-04-26T14:42:12.597Z,101435.28
2023-04-26T14:44:39.554Z,101428.44
2023-04-26T14:47:06.816Z,101429.13
2023-04-26T14:49:33.559Z,101425.50
2023-04-26T14:52:00.496Z,101424.56
2023-04-26T14:54:27.199Z,101416.97
2023-04-26T14:56:54.364Z,101413.03
2023-04-26T14:59:21.409Z,101419.91
2023-04-26T15:01:48.942Z,101415.63
2023-04-26T15:04:16.137Z,101413.22
2023-04-26T15:06:43.110Z,101413.88
2023-04-26T15:09:11.201Z,101412.75
2023-04-26T15:11:38.172Z,101415.63
2023-04-26T15:14:05.088Z,101410.84
2023-04-26T15:16:31.938Z,101410.88
2023-04-26T15:18:59.094Z,101408.56
2023-04-26T15:21:26.972Z,101402.78
2023-04-26T15:23:53.828Z,101405.06
2023-04-26T15:26:20.747Z,101402.50
2023-04-26T15:28:47.460Z,101390.25
2023-04-26T15:31:14.224Z,101398.72
2023-04-26T15:33:41.197Z,101389.94
2023-04-26T15:36:08.170Z,101401.78
2023-04-26T15:38:35.432Z,101397.41
2023-04-26T15:41:02.159Z,101398.81
2023-04-26T15:43:29.007Z,101397.50
2023-04-26T15:45:55.826Z,101403.47
2023-04-26T15:48:22.613Z,101393.88
2023-04-26T15:50:50.737Z,101393.94
2023-04-26T15:53:18.104Z,101400.03
2023-04-26T15:55:44.914Z,101400.63
2023-04-26T15:58:11.961Z,101405.50
2023-04-26T16:00:38.862Z,101413.22
2023-04-26T16:03:05.917Z,101395.00
2023-04-26T16:05:33.063Z,101414.69
2023-04-26T16:08:00.742Z,101404.41
2023-04-26T16:10:27.508Z,101398.84
2023-04-26T16:12:54.266Z,101405.38
2023-04-26T16:15:21.132Z,101396.03
2023-04-26T16:17:48.553Z,101396.59
2023-04-26T16:20:16.491Z,101401.44
2023-04-26T16:22:45.077Z,101395.41
2023-04-26T16:25:12.194Z,101394.47
2023-04-26T16:27:38.968Z,101393.81
2023-04-26T16:30:06.580Z,101391.00
2023-04-26T16:32:34.313Z,101394.84
2023-04-26T16:35:01.270Z,101382.13
2023-04-26T16:37:28.083Z,101384.34
2023-04-26T16:39:55.922Z,101394.78
2023-04-26T16:42:23.009Z,101389.03
2023-04-26T16:44:49.708Z,101378.53
2023-04-26T16:47:17.069Z,101386.13
2023-04-26T16:49:43.830Z,101385.75
2023-04-26T16:52:10.855Z,101383.00
2023-04-26T16:54:37.749Z,101387.00
2023-04-26T16:57:06.897Z,101393.03
2023-04-26T16:59:33.888Z,101394.72
2023-04-26T17:02:00.732Z,101401.38
2023-04-26T17:04:27.840Z,101401.72
2023-04-26T17:06:54.832Z,101396.31
2023-04-26T17:09:21.663Z,101397.84
2023-04-26T17:11:49.857Z,101398.47
2023-04-26T17:14:16.934Z,101396.19
2023-04-26T17:16:44.089Z,101407.00
2023-04-26T17:19:11.022Z,101403.66
2023-04-26T17:21:38.002Z,101409.63
2023-04-26T17:24:05.062Z,101411.91
2023-04-26T17:26:31.861Z,101404.50
2023-04-26T17:28:59.024Z,101409.25
2023-04-26T17:31:25.851Z,101398.72
2023-04-26T17:33:52.612Z,101411.03
2023-04-26T17:36:19.597Z,101414.06
2023-04-26T17:38:46.280Z,101401.56
2023-04-26T17:41:13.626Z,101419.28
2023-04-26T17:43:41.026Z,101413.47
2023-04-26T17:46:08.395Z,101422.81
2023-04-26T17:48:35.192Z,101429.88
2023-04-26T17:51:02.013Z,101428.59
2023-04-26T17:53:29.006Z,101422.31
2023-04-26T17:55:55.863Z,101426.34
2023-04-26T17:58:22.619Z,101422.56
2023-04-26T18:00:53.216Z,101421.56
2023-04-26T18:03:20.894Z,101431.25
2023-04-26T18:05:48.127Z,101436.13
2023-04-26T18:08:14.980Z,101446.84
2023-04-26T18:10:41.752Z,101442.69
2023-04-26T18:13:08.507Z,101437.53
2023-04-26T18:15:35.315Z,101440.50
2023-04-26T18:18:05.637Z,101450.16
2023-04-26T18:20:32.599Z,101449.72
2023-04-26T18:22:59.348Z,101438.03
2023-04-26T18:25:26.337Z,101448.13
2023-04-26T18:27:53.109Z,101455.81
2023-04-26T18:30:19.892Z,101453.88
2023-04-26T18:32:46.695Z,101457.44
2023-04-26T18:35:13.938Z,101457.56
2023-04-26T18:37:42.057Z,101461.53
2023-04-26T18:40:09.572Z,101462.88
2023-04-26T18:42:38.607Z,101471.34
2023-04-26T18:45:06.998Z,101471.44
2023-04-26T18:47:33.868Z,101479.00
2023-04-26T18:50:01.142Z,101467.56
2023-04-26T18:52:27.956Z,101478.25
2023-04-26T18:54:54.865Z,101478.72
2023-04-26T18:57:22.759Z,101475.97
2023-04-26T18:59:50.083Z,101479.09
2023-04-26T19:02:16.931Z,101471.22
2023-04-26T19:04:44.231Z,101494.22
2023-04-26T19:07:12.464Z,101488.09
2023-04-26T19:09:50.518Z,101487.00
2023-04-26T19:12:20.846Z,101478.34
2023-04-26T19:14:48.258Z,101493.03
2023-04-26T19:17:15.066Z,101497.88
2023-04-26T19:19:42.085Z,101503.38
2023-04-26T19:25:05.589Z,101497.91
2023-04-26T19:41:35.190Z,101500.00
2023-04-26T19:44:03.178Z,101515.97
2023-04-26T19:46:30.041Z,101516.88
2023-04-26T19:48:56.937Z,101514.47
2023-04-26T19:51:23.581Z,101514.25
2023-04-26T19:53:50.943Z,101509.91
2023-04-26T19:56:18.368Z,101513.25
2023-04-26T19:58:45.355Z,101506.66
2023-04-26T20:01:16.777Z,101500.03
2023-04-26T20:03:44.447Z,101510.00
2023-04-26T20:06:19.333Z,101502.09
2023-04-26T20:08:53.536Z,101499.91
2023-04-26T20:11:24.018Z,101517.47
2023-04-26T20:13:52.759Z,101515.16
2023-04-26T20:16:23.710Z,101529.50
2023-04-26T20:18:51.659Z,101510.75
2023-04-26T20:21:21.368Z,101527.72
2023-04-26T20:23:48.548Z,101526.91
2023-04-26T20:26:21.786Z,101528.53
2023-04-26T20:28:52.763Z,101535.59
2023-04-26T20:31:23.601Z,101526.41
2023-04-26T20:33:50.914Z,101537.13
2023-04-26T20:36:17.808Z,101531.09
2023-04-26T20:38:44.625Z,101532.34
2023-04-26T20:41:11.382Z,101535.25
2023-04-26T20:43:40.842Z,101544.84
2023-04-26T20:46:08.206Z,101541.34
2023-04-26T20:48:35.051Z,101539.91
2023-04-26T20:51:02.928Z,101552.50
2023-04-26T20:53:29.725Z,101548.28
2023-04-26T20:55:56.953Z,101539.84
2023-04-26T20:58:24.348Z,101548.53
2023-04-26T21:00:55.619Z,101547.41
2023-04-26T21:03:22.840Z,101546.69
2023-04-26T21:05:49.953Z,101548.31
2023-04-26T21:08:16.747Z,101544.81
2023-04-26T21:10:46.606Z,101551.28
2023-04-26T21:13:14.524Z,101541.34
2023-04-26T21:15:41.447Z,101540.44
2023-04-26T21:18:08.461Z,101541.56
2023-04-26T21:20:35.599Z,101546.31
2023-04-26T21:23:02.724Z,101548.66
2023-04-26T21:25:29.530Z,101551.75
2023-04-26T21:27:58.305Z,101547.59
2023-04-26T21:30:34.423Z,101548.91
2023-04-26T21:33:04.548Z,101558.06
2023-04-26T21:35:31.860Z,101555.53
2023-04-26T21:38:12.267Z,101557.19
2023-04-26T21:40:40.689Z,101559.50
2023-04-26T21:43:09.749Z,101548.81
2023-04-26T21:45:36.595Z,101560.97
2023-04-26T21:48:03.991Z,101555.72
2023-04-26T21:50:31.535Z,101559.56
2023-04-26T21:52:58.655Z,101563.63
2023-04-26T21:55:27.546Z,101559.31
2023-04-26T21:57:54.835Z,101553.72
2023-04-26T22:00:22.940Z,101550.72
2023-04-26T22:02:51.501Z,101542.91
2023-04-26T22:05:18.530Z,101546.91
2023-04-26T22:07:45.952Z,101554.38
2023-04-26T22:10:12.733Z,101549.97
2023-04-26T22:12:39.501Z,101543.66
2023-04-26T22:15:06.868Z,101557.25
2023-04-26T22:17:34.187Z,101547.56
2023-04-26T22:20:01.110Z,101546.13
2023-04-26T22:22:28.122Z,101550.38
2023-04-26T22:24:55.552Z,101553.91
2023-04-26T22:27:23.591Z,101559.97
2023-04-26T22:29:52.321Z,101557.19
2023-04-26T22:32:19.804Z,101561.69
2023-04-26T22:34:46.904Z,101551.06
2023-04-26T22:37:21.179Z,101557.56
2023-04-26T22:39:49.248Z,101550.91
2023-04-26T22:42:18.740Z,101551.06
2023-04-26T22:44:46.632Z,101557.50
2023-04-26T22:47:13.537Z,101558.91
2023-04-26T22:49:40.517Z,101556.72
2023-04-26T22:52:14.107Z,101556.19
2023-04-26T22:54:47.059Z,101554.16
2023-04-26T22:57:13.845Z,101567.34
2023-04-26T22:59:43.244Z,101576.59
2023-04-26T23:02:10.063Z,101570.63
2023-04-26T23:04:36.821Z,101578.53
2023-04-26T23:07:03.844Z,101584.69
2023-04-26T23:09:30.738Z,101589.41
2023-04-26T23:11:59.487Z,101595.88
2023-04-26T23:14:30.544Z,101591.16
2023-04-26T23:17:01.153Z,101600.09
2023-04-26T23:19:28.308Z,101589.91
2023-04-26T23:21:55.206Z,101594.84
2023-04-26T23:24:21.935Z,101595.16
2023-04-26T23:26:48.721Z,101596.16
2023-04-26T23:29:15.569Z,101585.19
2023-04-26T23:31:42.557Z,101601.09
2023-04-26T23:34:09.350Z,101603.16
2023-04-26T23:36:36.153Z,101615.13
2023-04-26T23:39:03.093Z,101607.91
2023-04-26T23:41:29.867Z,101607.91
2023-04-26T23:43:56.731Z,101604.47
2023-04-26T23:46:23.466Z,101601.88
2023-04-26T23:48:50.236Z,101611.81
2023-04-26T23:51:17.146Z,101612.13
2023-04-26T23:53:44.940Z,101603.25
2023-04-26T23:56:12.043Z,101614.81
2023-04-26T23:58:39.038Z,101616.66
